Time;durP1;ratioP1;P1;durP2;ratioP2;P2;SDS_P1;SDS_P2;PMS_P1;PMS_P2;Temp;Humidity;BMP_temperature;BMP_pressure;BME280_temperature;BME280_humidity;BME280_pressure;Samples;Min_cycle;Max_cycle;Signal;HPM_P1;HPM_P2
2022/03/15 00:01:40;;;;;;;53.90;20.90;;;;;;;5.14;100.00;101668.97;7392402;19;20374;-52
2022/03/15 00:04:10;;;;;;;42.93;18.87;;;;;;;5.09;100.00;101669.38;7385754;19;20924;-49
2022/03/15 00:06:42;;;;;;;52.77;20.27;;;;;;;5.10;100.00;101663.50;7394775;19;20416;-51
2022/03/15 00:09:12;;;;;;;52.33;18.87;;;;;;;5.04;100.00;101668.13;7391074;19;20406;-51
2022/03/15 00:11:43;;;;;;;42.97;18.53;;;;;;;5.02;100.00;101675.66;7400624;19;20387;-54
2022/03/15 00:14:14;;;;;;;50.87;19.90;;;;;;;4.99;100.00;101673.75;7394599;19;20425;-51
2022/03/15 00:16:44;;;;;;;41.57;17.77;;;;;;;4.95;100.00;101676.88;7400012;19;20388;-50
2022/03/15 00:19:14;;;;;;;51.00;19.47;;;;;;;4.92;100.00;101675.72;7394996;19;20406;-49
2022/03/15 00:21:46;;;;;;;46.40;18.77;;;;;;;4.91;100.00;101674.81;7399694;19;20391;-53
2022/03/15 00:24:15;;;;;;;45.97;18.43;;;;;;;4.88;100.00;101681.34;7394526;19;20432;-51
2022/03/15 00:26:46;;;;;;;50.00;17.80;;;;;;;4.88;100.00;101672.03;7399204;19;20370;-52
2022/03/15 00:29:18;;;;;;;50.83;19.70;;;;;;;4.85;100.00;101676.88;7391696;19;20821;-47
2022/03/15 00:31:47;;;;;;;58.30;18.83;;;;;;;4.84;100.00;101686.25;7399712;19;20379;-50
2022/03/15 00:34:17;;;;;;;53.60;18.30;;;;;;;4.84;100.00;101682.78;7393520;19;20423;-51
2022/03/15 00:36:49;;;;;;;41.80;17.27;;;;;;;4.84;100.00;101677.66;7400831;19;20387;-51
2022/03/15 00:39:19;;;;;;;50.20;18.70;;;;;;;4.86;100.00;101678.66;7393720;19;20470;-52
2022/03/15 00:41:48;;;;;;;42.77;18.37;;;;;;;4.83;100.00;101688.66;7398680;19;20371;-51
2022/03/15 00:44:18;;;;;;;43.57;19.40;;;;;;;4.83;100.00;101681.88;7391731;19;20439;-49
2022/03/15 00:46:48;;;;;;;52.30;19.20;;;;;;;4.85;100.00;101677.78;7398762;19;20714;-48
2022/03/15 00:49:17;;;;;;;44.10;16.83;;;;;;;4.79;100.00;101684.97;7392792;19;20422;-50
2022/03/15 00:51:51;;;;;;;43.87;18.47;;;;;;;4.70;100.00;101676.56;7398724;19;20445;-48
2022/03/15 00:54:20;;;;;;;38.50;15.10;;;;;;;4.63;100.00;101690.53;7392076;19;20414;-53
2022/03/15 00:56:50;;;;;;;61.93;22.57;;;;;;;4.65;100.00;101686.41;7400101;19;20371;-52
2022/03/15 00:59:20;;;;;;;57.60;21.47;;;;;;;4.62;100.00;101691.28;7392841;19;20434;-48
2022/03/15 01:01:49;;;;;;;51.03;20.57;;;;;;;4.69;100.00;101691.03;7398220;19;20377;-52
2022/03/15 01:04:19;;;;;;;49.40;19.53;;;;;;;4.62;100.00;101685.28;7391903;19;20768;-50
2022/03/15 01:06:51;;;;;;;51.53;20.70;;;;;;;4.61;100.00;101683.50;7397620;19;20386;-49
2022/03/15 01:09:20;;;;;;;61.73;21.47;;;;;;;4.53;100.00;101691.44;7391029;19;20420;-52
2022/03/15 01:11:50;;;;;;;49.33;21.17;;;;;;;4.52;100.00;101694.75;7402408;19;20391;-51
2022/03/15 01:14:20;;;;;;;52.10;22.23;;;;;;;4.55;100.00;101696.66;7392611;19;20409;-55
2022/03/15 01:16:49;;;;;;;59.43;20.40;;;;;;;4.50;100.00;101695.41;7398387;19;20371;-49
2022/03/15 01:19:19;;;;;;;47.27;18.13;;;;;;;4.40;100.00;101688.63;7393423;19;20414;-49
2022/03/15 01:21:51;;;;;;;72.10;23.53;;;;;;;4.39;100.00;101697.06;7397851;19;20375;-49
2022/03/15 01:24:21;;;;;;;65.53;22.20;;;;;;;4.33;100.00;101700.03;7391266;19;20398;-51
2022/03/15 01:26:54;;;;;;;52.67;22.00;;;;;;;4.27;100.00;101702.06;7397582;19;20862;-52
2022/03/15 01:29:25;;;;;;;48.73;20.13;;;;;;;4.17;100.00;101706.41;7388499;19;20441;-49
2022/03/15 01:31:56;;;;;;;52.73;19.97;;;;;;;4.16;100.00;101707.19;7397509;19;20371;-48
2022/03/15 01:34:27;;;;;;;76.80;22.33;;;;;;;4.17;100.00;101708.09;7391536;19;20753;-49
2022/03/15 01:36:59;;;;;;;54.00;18.90;;;;;;;4.09;100.00;101701.47;7397225;19;20359;-52
2022/03/15 01:39:28;;;;;;;67.17;23.60;;;;;;;4.17;100.00;101693.63;7391393;19;20478;-53
2022/03/15 01:41:59;;;;;;;60.63;22.10;;;;;;;4.50;100.00;101695.41;7396916;19;20367;-52
2022/03/15 01:44:32;;;;;;;136.87;25.27;;;;;;;4.27;100.00;101697.88;7389611;19;20425;-53
2022/03/15 01:47:02;;;;;;;58.33;22.70;;;;;;;4.23;100.00;101692.34;7396967;19;20379;-52
2022/03/15 01:49:32;;;;;;;58.63;22.40;;;;;;;4.17;100.00;101693.63;7389730;19;20954;-53
2022/03/15 01:52:05;;;;;;;47.80;21.57;;;;;;;4.16;100.00;101694.41;7396459;19;20380;-51
2022/03/15 01:54:35;;;;;;;66.80;24.47;;;;;;;4.19;100.00;101698.88;7391361;19;20412;-53
2022/03/15 01:57:07;;;;;;;64.63;23.20;;;;;;;4.17;100.00;101700.44;7396332;19;20366;-50
2022/03/15 01:59:37;;;;;;;144.90;24.50;;;;;;;4.16;100.00;101694.41;7388648;19;20430;-50
2022/03/15 02:02:07;;;;;;;40.33;18.70;;;;;;;4.09;100.00;101692.13;7395941;19;20459;-49
2022/03/15 02:04:37;;;;;;;57.90;21.37;;;;;;;4.00;100.00;101692.25;7393557;19;20445;-51
2022/03/15 02:07:11;;;;;;;61.03;20.43;;;;;;;3.99;100.00;101698.13;7396176;19;20388;-54
2022/03/15 02:09:41;;;;;;;77.47;22.57;;;;;;;3.97;100.00;101693.66;7389953;19;20422;-50
2022/03/15 02:12:12;;;;;;;56.10;20.97;;;;;;;3.99;100.00;101699.81;7395848;19;20450;-54
2022/03/15 02:14:42;;;;;;;59.90;19.20;;;;;;;3.91;100.00;101696.59;7390738;19;20400;-50
2022/03/15 02:17:11;;;;;;;67.67;20.67;;;;;;;3.94;100.00;101695.97;7395790;19;20755;-49
2022/03/15 02:19:41;;;;;;;97.33;21.30;;;;;;;3.86;100.00;101703.88;7389627;19;20414;-54
2022/03/15 02:22:14;;;;;;;55.63;21.10;;;;;;;3.83;100.00;101701.06;7395637;19;20382;-50
2022/03/15 02:24:43;;;;;;;53.60;15.40;;;;;;;3.79;100.00;101701.53;7390034;19;20465;-48
2022/03/15 02:27:12;;;;;;;66.90;21.57;;;;;;;3.83;100.00;101692.47;7395238;19;20399;-51
2022/03/15 02:29:42;;;;;;;70.83;21.20;;;;;;;3.86;100.00;101693.66;7386967;19;20474;-48
2022/03/15 02:32:11;;;;;;;58.90;20.53;;;;;;;3.86;100.00;101696.22;7398557;19;20871;-50
2022/03/15 02:34:41;;;;;;;122.50;20.40;;;;;;;3.84;100.00;101691.75;7389847;19;20419;-53
2022/03/15 02:37:10;;;;;;;56.27;23.10;;;;;;;3.94;100.00;101685.75;7395652;19;20402;-48
2022/03/15 02:39:43;;;;;;;75.60;23.00;;;;;;;3.96;100.00;101689.31;7389902;19;20385;-51
2022/03/15 02:42:12;;;;;;;67.10;22.70;;;;;;;3.97;100.00;101686.00;7394692;19;20394;-49
2022/03/15 02:44:42;;;;;;;74.20;24.30;;;;;;;3.99;100.00;101684.47;7387807;19;20446;-54
2022/03/15 02:47:11;;;;;;;78.83;24.37;;;;;;;4.00;100.00;101691.38;7390322;19;20384;-56
2022/03/15 02:49:41;;;;;;;51.50;20.90;;;;;;;3.95;100.00;101687.53;7385483;19;20416;-52
2022/03/15 02:52:10;;;;;;;64.50;23.10;;;;;;;3.90;100.00;101685.47;7394822;19;20371;-55
2022/03/15 02:54:42;;;;;;;76.23;26.30;;;;;;;3.97;100.00;101679.22;7390068;19;20414;-50
2022/03/15 02:57:12;;;;;;;55.23;20.37;;;;;;;3.89;100.00;101683.69;7394471;19;20371;-48
2022/03/15 02:59:42;;;;;;;53.53;19.73;;;;;;;3.90;100.00;101676.94;7389314;19;20926;-48
2022/03/15 03:02:12;;;;;;;47.37;18.87;;;;;;;3.85;100.00;101673.97;7393893;19;21024;-51
2022/03/15 03:04:42;;;;;;;54.03;22.40;;;;;;;3.88;100.00;101674.25;7388866;19;20470;-55
2022/03/15 03:07:14;;;;;;;64.60;24.33;;;;;;;3.90;100.00;101675.25;7398144;19;20386;-49
2022/03/15 03:09:46;;;;;;;60.83;24.50;;;;;;;3.91;100.00;101668.50;7388870;19;20746;-51
2022/03/15 03:12:16;;;;;;;68.03;25.33;;;;;;;3.93;100.00;101672.06;7393736;19;20363;-48
2022/03/15 03:14:47;;;;;;;66.23;24.07;;;;;;;3.92;100.00;101676.31;7387962;19;20419;-49
2022/03/15 03:17:18;;;;;;;56.37;23.93;;;;;;;3.92;100.00;101683.06;7393342;19;20702;-54
2022/03/15 03:19:47;;;;;;;61.77;23.47;;;;;;;3.90;100.00;101682.91;7387466;19;20746;-48
2022/03/15 03:22:19;;;;;;;61.83;24.80;;;;;;;3.95;100.00;101682.41;7393115;19;20390;-50
2022/03/15 03:24:51;;;;;;;78.20;25.30;;;;;;;3.95;100.00;101684.97;7390133;19;20808;-51
2022/03/15 03:27:20;;;;;;;72.17;26.73;;;;;;;4.01;100.00;101682.94;7393344;19;20371;-48
2022/03/15 03:29:50;;;;;;;86.13;27.30;;;;;;;4.05;100.00;101684.94;7388870;19;20927;-52
2022/03/15 03:32:21;;;;;;;78.20;27.40;;;;;;;4.07;100.00;101683.44;7393949;19;20387;-50
2022/03/15 03:34:51;;;;;;;80.63;28.97;;;;;;;4.04;100.00;101683.16;7387879;19;20404;-49
2022/03/15 03:37:20;;;;;;;80.10;27.90;;;;;;;4.02;100.00;101677.97;7393954;19;20889;-53
2022/03/15 03:39:54;;;;;;;66.70;25.57;;;;;;;3.98;100.00;101682.66;7386111;19;20409;-54
2022/03/15 03:42:24;;;;;;;79.33;26.70;;;;;;;3.90;100.00;101682.91;7391229;19;20898;-49
2022/03/15 03:44:53;;;;;;;63.73;23.87;;;;;;;3.83;100.00;101683.19;7385328;19;20783;-52
2022/03/15 03:47:23;;;;;;;56.60;22.97;;;;;;;3.80;100.00;101688.03;7391803;19;20375;-52
2022/03/15 03:49:52;;;;;;;80.87;26.17;;;;;;;3.87;100.00;101679.22;7385632;19;20398;-54
2022/03/15 03:52:22;;;;;;;77.67;25.73;;;;;;;3.89;100.00;101676.03;7389637;19;20375;-48
2022/03/15 03:54:54;;;;;;;82.43;26.13;;;;;;;3.90;100.00;101669.28;7386190;19;20948;-49
2022/03/15 03:57:23;;;;;;;80.40;28.37;;;;;;;3.94;100.00;101670.44;7391571;19;20371;-48
2022/03/15 03:59:53;;;;;;;83.57;27.47;;;;;;;3.93;100.00;101664.41;7386085;19;20394;-48
2022/03/15 04:02:22;;;;;;;91.60;30.60;;;;;;;3.91;100.00;101682.16;7392273;19;21008;-49
2022/03/15 04:04:52;;;;;;;99.53;29.27;;;;;;;3.89;100.00;101675.13;7387611;19;20418;-51
2022/03/15 04:07:22;;;;;;;97.57;28.97;;;;;;;3.90;100.00;101677.81;7394861;19;20857;-52
2022/03/15 04:09:54;;;;;;;112.60;25.80;;;;;;;3.66;100.00;101684.31;7391151;19;20518;-47
2022/03/15 04:12:24;;;;;;;98.97;24.47;;;;;;;3.62;100.00;101687.34;7390762;19;20380;-47
2022/03/15 04:14:54;;;;;;;95.97;28.00;;;;;;;3.57;100.00;101686.06;7386691;19;20411;-48
2022/03/15 04:17:25;;;;;;;68.37;22.77;;;;;;;3.44;100.00;101689.25;7392568;19;20387;-51
2022/03/15 04:19:55;;;;;;;65.97;23.60;;;;;;;3.38;100.00;101693.06;7386266;19;20487;-55
2022/03/15 04:22:24;;;;;;;104.87;29.20;;;;;;;3.47;100.00;101702.25;7392027;19;20375;-54
2022/03/15 04:24:56;;;;;;;105.63;26.00;;;;;;;3.40;100.00;101699.94;7386272;19;20419;-55
2022/03/15 04:27:26;;;;;;;80.17;28.57;;;;;;;3.43;100.00;101700.22;7394501;19;21007;-50
2022/03/15 04:29:55;;;;;;;88.83;29.63;;;;;;;3.51;100.00;101704.31;7386728;19;20434;-50
2022/03/15 04:32:25;;;;;;;79.40;28.53;;;;;;;3.50;100.00;101702.53;7390185;19;20373;-54
2022/03/15 04:34:54;;;;;;;115.10;28.50;;;;;;;3.43;100.00;101706.19;7385294;19;20735;-52
2022/03/15 04:37:24;;;;;;;92.13;30.93;;;;;;;3.42;100.00;101698.41;7391902;19;20378;-49
2022/03/15 04:39:58;;;;;;;107.13;32.67;;;;;;;3.36;100.00;101698.78;7386502;19;20427;-52
2022/03/15 04:42:28;;;;;;;98.93;33.20;;;;;;;3.36;100.00;101686.94;7391573;19;20376;-51
2022/03/15 04:44:57;;;;;;;112.23;33.10;;;;;;;3.34;100.00;101678.25;7385719;19;20423;-49
2022/03/15 04:47:27;;;;;;;124.53;34.93;;;;;;;3.41;100.00;101686.41;7391343;19;20882;-50
2022/03/15 04:49:56;;;;;;;111.67;34.20;;;;;;;3.37;100.00;101675.06;7385946;19;20430;-49
2022/03/15 04:52:26;;;;;;;93.33;33.73;;;;;;;3.34;100.00;101678.25;7389595;19;20369;-50
2022/03/15 04:54:58;;;;;;;110.57;33.50;;;;;;;3.37;100.00;101675.97;7390892;19;20411;-52
2022/03/15 04:57:27;;;;;;;103.53;31.57;;;;;;;3.43;100.00;101669.59;7398866;19;20892;-53
2022/03/15 04:59:57;;;;;;;99.63;32.03;;;;;;;3.37;100.00;101668.31;7391614;19;20732;-50
2022/03/15 05:02:27;;;;;;;95.87;34.47;;;;;;;3.42;100.00;101678.00;7398164;19;20395;-51
2022/03/15 05:04:56;;;;;;;153.97;35.43;;;;;;;3.37;100.00;101670.88;7394653;19;20450;-50
2022/03/15 05:07:26;;;;;;;79.17;30.40;;;;;;;3.36;100.00;101668.16;7398394;19;20466;-51
2022/03/15 05:12:40;;;;;;;149.00;31.70;;;;;;;3.36;100.00;101674.19;7390183;19;20973;-48
2022/03/15 05:15:10;;;;;;;122.80;29.83;;;;;;;3.33;100.00;101684.09;7396104;19;20420;-53
2022/03/15 05:17:40;;;;;;;120.17;30.60;;;;;;;3.32;100.00;101672.13;7393513;19;20380;-49
2022/03/15 05:20:14;;;;;;;94.40;30.93;;;;;;;3.33;100.00;101673.91;7396981;19;20721;-48
2022/03/15 05:22:43;;;;;;;134.30;31.30;;;;;;;3.37;100.00;101675.06;7393247;19;20384;-48
2022/03/15 05:25:16;;;;;;;125.30;31.30;;;;;;;3.31;100.00;101680.53;7396041;19;20399;-49
2022/03/15 05:27:46;;;;;;;425.30;39.33;;;;;;;3.33;100.00;101678.13;7391796;19;20390;-49
2022/03/15 05:30:17;;;;;;;209.27;29.90;;;;;;;3.33;100.00;101667.94;7400832;19;20386;-49
2022/03/15 05:32:47;;;;;;;167.93;33.83;;;;;;;3.35;100.00;101666.38;7391247;19;20886;-50
2022/03/15 05:35:16;;;;;;;304.83;38.10;;;;;;;3.49;100.00;101665.03;7395536;19;20395;-48
2022/03/15 05:37:46;;;;;;;404.40;50.57;;;;;;;3.43;100.00;101655.16;7392297;19;20371;-53
2022/03/15 05:40:18;;;;;;;254.20;36.77;;;;;;;3.38;100.00;101657.34;7396434;19;20388;-49
2022/03/15 05:42:47;;;;;;;79.70;30.13;;;;;;;3.48;100.00;101653.91;7391654;19;20443;-48
2022/03/15 05:45:17;;;;;;;110.10;28.60;;;;;;;3.23;100.00;101658.59;7395208;19;20760;-50
2022/03/15 05:47:46;;;;;;;133.97;27.40;;;;;;;3.19;100.00;101653.97;7392581;19;20375;-48
2022/03/15 05:50:16;;;;;;;85.53;27.43;;;;;;;3.14;100.00;101663.78;7395889;19;20881;-50
2022/03/15 05:52:45;;;;;;;77.93;25.53;;;;;;;3.28;100.00;101659.84;7391033;19;20378;-48
2022/03/15 05:55:17;;;;;;;370.90;165.87;;;;;;;4.22;100.00;101658.28;7395050;19;20419;-49
2022/03/15 05:57:47;;;;;;;97.97;39.30;;;;;;;5.88;100.00;101636.06;7392530;19;20377;-53
2022/03/15 06:00:20;;;;;;;138.83;51.93;;;;;;;6.23;100.00;101604.53;7395623;19;20399;-50
2022/03/15 06:02:50;;;;;;;83.83;20.40;;;;;;;5.04;100.00;101624.63;7391573;19;20375;-51
2022/03/15 06:05:20;;;;;;;67.93;29.37;;;;;;;5.46;100.00;101620.16;7391731;19;20433;-53
2022/03/15 06:07:50;;;;;;;72.93;30.77;;;;;;;6.14;100.00;101614.09;7391331;19;20458;-50
2022/03/15 06:10:26;;;;;;;92.67;21.23;;;;;;;5.31;100.00;101620.78;7395867;19;20384;-50
2022/03/15 06:12:56;;;;;;;98.80;22.43;;;;;;;4.63;100.00;101624.06;7392219;19;20415;-55
2022/03/15 06:15:26;;;;;;;152.33;23.40;;;;;;;4.35;100.00;101637.16;7397678;19;20956;-50
2022/03/15 06:17:57;;;;;;;86.93;24.17;;;;;;;4.37;100.00;101643.31;7390514;19;20417;-53
2022/03/15 06:20:28;;;;;;;64.63;23.50;;;;;;;4.93;100.00;101637.47;7396258;19;20467;-51
2022/03/15 06:22:57;;;;;;;162.73;25.63;;;;;;;4.38;100.00;101645.09;7390878;19;20439;-50
2022/03/15 06:25:30;;;;;;;92.33;22.63;;;;;;;3.87;100.00;101656.25;7394730;19;20399;-48
2022/03/15 06:28:00;;;;;;;76.57;23.87;;;;;;;4.89;100.00;101635.47;7389033;19;20412;-52
2022/03/15 06:30:30;;;;;;;77.07;24.97;;;;;;;4.59;100.00;101647.56;7395493;19;20895;-52
2022/03/15 06:32:59;;;;;;;76.57;24.10;;;;;;;4.01;100.00;101659.94;7388928;19;20407;-48
2022/03/15 06:35:30;;;;;;;157.37;28.33;;;;;;;3.90;100.00;101653.97;7394088;19;20414;-52
2022/03/15 06:37:59;;;;;;;111.07;28.30;;;;;;;4.39;100.00;101638.28;7386624;19;20447;-53
2022/03/15 06:40:33;;;;;;;176.63;27.90;;;;;;;4.52;100.00;101647.84;7395121;19;20388;-50
2022/03/15 06:43:04;;;;;;;111.90;29.67;;;;;;;5.00;100.00;101637.19;7388004;19;20386;-52
2022/03/15 06:45:34;;;;;;;75.97;27.97;;;;;;;4.93;100.00;101640.03;7394131;19;20741;-52
2022/03/15 06:48:04;;;;;;;105.20;31.60;;;;;;;4.34;100.00;101655.81;7388590;19;20403;-55
2022/03/15 06:50:34;;;;;;;94.97;30.77;;;;;;;4.03;100.00;101655.84;7394680;19;20396;-51
2022/03/15 06:53:03;;;;;;;194.10;34.67;;;;;;;3.85;100.00;101651.00;7388611;19;20809;-51
2022/03/15 06:55:35;;;;;;;155.57;34.80;;;;;;;3.74;100.00;101646.69;7393140;19;20406;-50
2022/03/15 06:58:05;;;;;;;188.47;37.50;;;;;;;3.73;100.00;101645.78;7388202;19;20407;-53
2022/03/15 07:00:34;;;;;;;118.23;35.00;;;;;;;4.32;100.00;101634.38;7394757;19;20371;-52
2022/03/15 07:03:04;;;;;;;291.63;42.43;;;;;;;4.00;100.00;101636.06;7390072;19;20931;-54
2022/03/15 07:05:34;;;;;;;122.13;36.97;;;;;;;3.94;100.00;101632.13;7393171;19;20731;-48
2022/03/15 07:08:04;;;;;;;140.03;41.07;;;;;;;4.05;100.00;101624.56;7388487;19;20419;-51
2022/03/15 07:10:36;;;;;;;110.80;35.97;;;;;;;4.42;100.00;101615.56;7394187;19;20394;-51
2022/03/15 07:13:06;;;;;;;114.60;35.97;;;;;;;4.29;100.00;101613.66;7390492;19;20419;-52
2022/03/15 07:15:35;;;;;;;121.67;36.80;;;;;;;4.00;100.00;101620.72;7392421;19;20758;-52
2022/03/15 07:18:05;;;;;;;125.10;37.87;;;;;;;3.89;100.00;101619.84;7387731;19;20760;-51
2022/03/15 07:20:34;;;;;;;140.10;36.97;;;;;;;3.81;100.00;101625.09;7393908;19;20394;-48
2022/03/15 07:23:04;;;;;;;120.93;37.80;;;;;;;3.79;100.00;101627.50;7388337;19;20403;-50
2022/03/15 07:25:37;;;;;;;159.40;39.43;;;;;;;3.89;100.00;101624.97;7392370;19;20408;-49
2022/03/15 07:28:07;;;;;;;164.20;39.77;;;;;;;3.90;100.00;101624.19;7387266;19;20413;-50
2022/03/15 07:30:36;;;;;;;149.17;41.80;;;;;;;4.57;100.00;101610.78;7393472;19;20392;-49
2022/03/15 07:33:06;;;;;;;174.23;41.30;;;;;;;4.69;100.00;101618.53;7387693;19;20397;-49
2022/03/15 07:35:36;;;;;;;162.00;51.67;;;;;;;4.87;100.00;101611.41;7396667;19;20789;-47
2022/03/15 07:38:06;;;;;;;149.20;51.73;;;;;;;4.80;100.00;101615.16;7387177;19;20471;-50
2022/03/15 07:40:39;;;;;;;94.23;31.23;;;;;;;4.26;100.00;101629.63;7392768;19;20383;-51
2022/03/15 07:43:09;;;;;;;102.30;37.17;;;;;;;4.26;100.00;101623.66;7384754;19;20785;-49
2022/03/15 07:45:39;;;;;;;151.10;36.97;;;;;;;4.02;100.00;101638.75;7395896;19;20423;-53
2022/03/15 07:48:08;;;;;;;132.93;37.37;;;;;;;4.06;100.00;101635.69;7390305;19;20925;-51
2022/03/15 07:50:38;;;;;;;122.27;41.93;;;;;;;4.59;100.00;101624.56;7393111;19;20459;-50
2022/03/15 07:53:07;;;;;;;127.07;44.80;;;;;;;5.49;100.00;101616.16;7391372;19;20950;-50
2022/03/15 07:55:40;;;;;;;120.80;40.73;;;;;;;5.08;100.00;101624.13;7391447;19;20457;-50
2022/03/15 07:58:09;;;;;;;110.33;37.80;;;;;;;4.66;100.00;101637.06;7386466;19;20397;-48
2022/03/15 08:00:39;;;;;;;124.50;38.23;;;;;;;4.45;100.00;101643.91;7394745;19;20398;-47
2022/03/15 08:03:08;;;;;;;118.33;35.87;;;;;;;5.35;100.00;101627.00;7383957;19;20415;-51
2022/03/15 08:05:38;;;;;;;117.80;37.27;;;;;;;5.84;100.00;101634.09;7390686;19;20408;-49
2022/03/15 08:08:09;;;;;;;101.17;33.60;;;;;;;5.91;100.00;101641.44;7385254;19;20442;-49
2022/03/15 08:10:43;;;;;;;102.63;34.87;;;;;;;6.41;100.00;101645.13;7392704;19;20413;-51
2022/03/15 08:13:12;;;;;;;105.23;37.77;;;;;;;6.71;100.00;101655.78;7385744;19;20453;-51
2022/03/15 08:15:42;;;;;;;130.43;47.97;;;;;;;6.31;100.00;101685.44;7390794;19;20408;-50
2022/03/15 08:18:12;;;;;;;112.00;43.30;;;;;;;6.46;100.00;101697.63;7389165;19;20503;-52
2022/03/15 08:20:42;;;;;;;91.27;34.40;;;;;;;5.86;100.00;101719.59;7392331;19;20381;-48
2022/03/15 08:23:12;;;;;;;87.43;34.63;;;;;;;5.47;100.00;101725.22;7385727;19;20415;-51
2022/03/15 08:25:44;;;;;;;78.93;32.83;;;;;;;5.14;100.00;101724.38;7390182;19;20989;-51
2022/03/15 08:28:14;;;;;;;85.00;32.77;;;;;;;4.87;100.00;101718.81;7379800;19;20420;-50
2022/03/15 08:30:43;;;;;;;87.33;34.33;;;;;;;5.00;100.00;101710.47;7403985;19;20400;-50
2022/03/15 08:33:13;;;;;;;86.70;35.70;;;;;;;5.07;100.00;101699.94;7394139;19;20514;-53
2022/03/15 08:35:43;;;;;;;104.17;37.37;;;;;;;5.08;100.00;101694.06;7397018;19;20407;-53
2022/03/15 08:38:12;;;;;;;96.07;34.13;;;;;;;5.04;100.00;101691.16;7392785;19;20394;-52
2022/03/15 08:40:45;;;;;;;103.33;35.77;;;;;;;4.98;100.00;101682.22;7399385;19;20760;-52
2022/03/15 08:43:14;;;;;;;91.67;34.07;;;;;;;4.98;100.00;101679.66;7393946;19;20441;-51
2022/03/15 08:45:44;;;;;;;92.10;35.30;;;;;;;4.98;100.00;101671.97;7396580;19;20423;-48
2022/03/15 08:48:13;;;;;;;102.10;35.03;;;;;;;5.07;100.00;101664.13;7393451;19;21127;-53
2022/03/15 08:50:43;;;;;;;92.23;36.83;;;;;;;5.14;100.00;101665.53;7398943;19;20395;-51
2022/03/15 08:53:13;;;;;;;93.47;34.93;;;;;;;5.22;100.00;101664.44;7393280;19;20934;-54
2022/03/15 08:55:45;;;;;;;92.10;35.07;;;;;;;5.24;100.00;101656.91;7396539;19;20427;-55
2022/03/15 08:58:14;;;;;;;96.40;35.80;;;;;;;5.18;100.00;101654.72;7392976;19;20531;-48
2022/03/15 09:00:44;;;;;;;92.13;35.07;;;;;;;5.24;100.00;101651.78;7398518;19;20369;-54
2022/03/15 09:03:13;;;;;;;88.77;36.60;;;;;;;5.26;100.00;101648.56;7395602;19;20537;-47
2022/03/15 09:05:43;;;;;;;84.73;34.60;;;;;;;5.31;100.00;101651.47;7396398;19;20443;-49
2022/03/15 09:08:17;;;;;;;90.87;34.33;;;;;;;5.30;100.00;101646.22;7394398;19;20483;-52
2022/03/15 09:10:49;;;;;;;86.43;34.13;;;;;;;5.36;100.00;101639.03;7398067;19;20728;-53
2022/03/15 09:13:19;;;;;;;84.00;34.50;;;;;;;5.42;100.00;101639.50;7392561;19;20826;-53
2022/03/15 09:15:48;;;;;;;93.43;35.20;;;;;;;5.58;100.00;101630.44;7395830;19;20471;-53
2022/03/15 09:18:18;;;;;;;79.03;32.83;;;;;;;5.64;100.00;101636.03;7391689;19;20443;-52
2022/03/15 09:20:48;;;;;;;92.00;31.77;;;;;;;5.70;100.00;101641.63;7397846;19;20391;-52
2022/03/15 09:23:17;;;;;;;79.53;31.00;;;;;;;5.72;100.00;101645.19;7391107;19;20408;-48
2022/03/15 09:25:49;;;;;;;86.37;31.60;;;;;;;5.72;100.00;101649.41;7399799;19;20417;-50
2022/03/15 09:28:26;;;;;;;87.37;35.63;;;;;;;5.73;100.00;101648.63;7391697;19;20400;-49
2022/03/15 09:30:55;;;;;;;78.83;33.43;;;;;;;5.86;100.00;101647.88;7397655;19;20723;-50
2022/03/15 09:33:25;;;;;;;94.07;33.83;;;;;;;5.97;100.00;101646.13;7392596;19;20415;-49
2022/03/15 09:35:55;;;;;;;80.73;32.93;;;;;;;6.02;100.00;101648.31;7395411;19;20411;-50
2022/03/15 09:38:26;;;;;;;92.10;33.83;;;;;;;6.21;100.00;101641.97;7390694;19;20420;-51
2022/03/15 09:40:58;;;;;;;84.97;34.07;;;;;;;6.44;100.00;101640.19;7396403;19;20392;-50
2022/03/15 09:43:28;;;;;;;83.70;33.27;;;;;;;6.44;100.00;101650.44;7390762;19;20426;-50
2022/03/15 09:45:58;;;;;;;84.03;33.17;;;;;;;6.61;100.00;101642.31;7394754;19;20486;-49
2022/03/15 09:48:49;;;;;;;79.07;33.10;;;;;;;6.75;100.00;101647.53;7391489;19;20813;-49
2022/03/15 09:51:18;;;;;;;78.97;33.00;;;;;;;6.86;100.00;101645.72;7397550;19;20401;-49
2022/03/15 09:53:48;;;;;;;69.40;29.90;;;;;;;6.76;100.00;101659.56;7391308;19;20415;-48
2022/03/15 09:56:21;;;;;;;77.33;32.97;;;;;;;6.72;100.00;101668.72;7396765;19;20392;-50
2022/03/15 09:58:51;;;;;;;71.47;30.87;;;;;;;7.12;100.00;101665.53;7389075;19;20419;-48
2022/03/15 10:01:21;;;;;;;99.97;44.10;;;;;;;7.61;100.00;101661.13;7396041;19;20750;-53
2022/03/15 10:03:50;;;;;;;109.27;50.03;;;;;;;8.29;100.00;101681.09;7390758;19;20433;-51
2022/03/15 10:06:21;;;;;;;102.77;47.40;;;;;;;8.24;100.00;101698.78;7396226;19;20930;-51
2022/03/15 10:08:50;;;;;;;95.90;44.60;;;;;;;7.90;100.00;101721.34;7391189;19;20443;-52
2022/03/15 10:11:23;;;;;;;60.67;28.80;;;;;;;7.49;100.00;101739.09;7395821;19;20714;-51
2022/03/15 10:13:53;;;;;;;192.93;93.47;;;;;;;7.71;100.00;101730.34;7389667;19;20413;-51
2022/03/15 10:16:23;;;;;;;100.03;43.13;;;;;;;8.18;100.00;101734.38;7394053;19;20390;-53
2022/03/15 10:18:57;;;;;;;97.67;46.13;;;;;;;8.48;100.00;101751.72;7389144;19;20439;-49
2022/03/15 10:21:38;;;;;;;88.00;43.90;;;;;;;8.90;100.00;101764.75;7395022;19;20394;-52
2022/03/15 10:24:09;;;;;;;82.70;37.83;;;;;;;8.04;100.00;101791.63;7392207;19;20411;-53
2022/03/15 10:26:42;;;;;;;76.13;37.70;;;;;;;8.56;100.00;101785.72;7395383;19;20390;-51
2022/03/15 10:29:13;;;;;;;61.53;29.90;;;;;;;8.76;100.00;101798.22;7388589;19;20438;-49
2022/03/15 10:31:43;;;;;;;72.70;33.87;;;;;;;8.71;100.00;101789.28;7395518;19;20383;-49
2022/03/15 10:34:14;;;;;;;63.40;29.47;;;;;;;9.01;100.00;101792.09;7387629;19;20435;-48
2022/03/15 10:36:45;;;;;;;64.50;29.40;;;;;;;8.98;100.00;101794.47;7394881;19;20404;-50
2022/03/15 10:39:16;;;;;;;60.83;29.70;;;;;;;9.08;100.00;101810.50;7388615;19;20419;-50
2022/03/15 10:41:52;;;;;;;56.40;27.53;;;;;;;9.17;100.00;101806.84;7395253;19;20690;-52
2022/03/15 10:44:24;;;;;;;59.70;27.57;;;;;;;9.27;100.00;101810.91;7387696;19;20530;-49
2022/03/15 10:47:06;;;;;;;53.83;27.83;;;;;;;9.51;100.00;101813.25;7394908;19;20392;-50
2022/03/15 10:49:49;;;;;;;60.27;26.53;;;;;;;9.45;100.00;101812.88;7387661;19;20494;-55
2022/03/15 10:52:33;;;;;;;61.20;28.03;;;;;;;9.05;100.00;101806.06;7395748;19;20387;-49
2022/03/15 10:55:14;;;;;;;54.17;26.50;;;;;;;8.97;100.00;101815.84;7396366;19;20443;-51
2022/03/15 10:57:54;;;;;;;52.80;25.67;;;;;;;9.89;100.00;101805.25;7391350;19;20400;-53
2022/03/15 11:00:26;;;;;;;57.23;26.67;;;;;;;9.55;100.00;101825.53;7394155;19;20396;-54
2022/03/15 11:02:56;;;;;;;53.67;25.50;;;;;;;9.71;100.00;101823.91;7386601;19;20407;-51
2022/03/15 11:05:33;;;;;;;61.47;27.63;;;;;;;9.42;100.00;101839.31;7390437;19;20420;-50
2022/03/15 11:08:06;;;;;;;63.63;28.00;;;;;;;9.35;100.00;101832.00;7387128;19;20407;-51
2022/03/15 11:10:37;;;;;;;54.63;25.67;;;;;;;9.31;100.00;101824.88;7389463;19;20388;-51
2022/03/15 11:13:11;;;;;;;57.67;27.17;;;;;;;9.98;100.00;101822.16;7385668;19;20798;-51
2022/03/15 11:15:42;;;;;;;51.93;25.43;;;;;;;9.38;100.00;101832.19;7391124;19;20438;-50
2022/03/15 11:18:15;;;;;;;65.67;27.93;;;;;;;9.00;100.00;101826.34;7385954;19;20428;-54
2022/03/15 11:20:46;;;;;;;52.70;27.10;;;;;;;9.72;100.00;101817.97;7392392;19;20388;-51
2022/03/15 11:23:23;;;;;;;55.87;25.33;;;;;;;9.70;100.00;101815.28;7388906;19;20442;-53
2022/03/15 11:25:58;;;;;;;50.90;24.10;;;;;;;9.65;100.00;101816.69;7390414;19;20407;-52